»·PEaware :: N69016 KOLM-WA09

N69016 :: KOLM-WA09

FLIGHT INFORMATION

Flight Status: Arrived
Operator: Privately registered:
United States
More flights under this callsign
Pilot: Anonymous 20880 (20880)
Aircraft: CESSNA 152 AEROBAT
(C152)
More flights by this aircraft type
Origin: KOLM Olympia
United States
Destination: WA09 Roche Harbor
United States
More flights between these airports :: More routes between these airports
Route:
File this flight plan on PilotEdge
Remarks:
Altitude:
(Current/Filed)
5,500ft
Speed:
(Current/Filed)
100kts
Departed: 08-Nov-19 09:12 AM
Arrived: 08-Nov-19 10:15 AM
Distance/Time
Traveled:
99nm/1:03
Distance/Time
To Go:
Arrived

Flight Plot

Page will automatically refresh every two minutes.

Flight plan parsing failed; only flown route is shown


Map Options




Map Legend


Flown Route
Filed Route
Departure Airport
Arrival Airport
Navaid (VOR, NDB)
Fix

Horizontal Profiles

Position Reports

Time Latitude Longitude Heading Altitude Ground
Speed
08-Nov-19 09:03 46.972821 -122.894969 321 212ft 0kts
08-Nov-19 09:04 46.972821 -122.894969 321 212ft 0kts
08-Nov-19 09:05 46.972821 -122.894969 321 212ft 0kts
08-Nov-19 09:06 46.972794 -122.895349 232 212ft 5kts
08-Nov-19 09:07 46.974347 -122.898237 321 212ft 15kts
08-Nov-19 09:08 46.976149 -122.901196 279 212ft 0kts
08-Nov-19 09:09 46.976149 -122.901196 279 212ft 0kts
08-Nov-19 09:10 46.976169 -122.901377 277 212ft 6kts
08-Nov-19 09:11 46.964282 -122.906467 195 560ft 75kts
08-Nov-19 09:12 46.961294 -122.890773 23 1356ft 77kts
08-Nov-19 09:13 46.981664 -122.878994 8 2135ft 78kts
08-Nov-19 09:14 47.003152 -122.882378 1 2869ft 79kts
08-Nov-19 09:15 47.025021 -122.881163 350 3557ft 78kts
08-Nov-19 09:16 47.046516 -122.885729 346 4195ft 78kts
08-Nov-19 09:17 47.068067 -122.891242 349 4788ft 79kts
08-Nov-19 09:18 47.090354 -122.891210 2 5324ft 83kts
08-Nov-19 09:19 47.114667 -122.884734 6 5599ft 97kts
08-Nov-19 09:20 47.141459 -122.874510 5 5632ft 101kts
08-Nov-19 09:21 47.167957 -122.870903 351 6024ft 92kts
08-Nov-19 09:22 47.193807 -122.873413 351 6458ft 93kts
08-Nov-19 09:23 47.220381 -122.872430 354 6861ft 96kts
08-Nov-19 09:24 47.247441 -122.869628 353 7249ft 97kts
08-Nov-19 09:25 47.274882 -122.871042 349 7550ft 99kts
08-Nov-19 09:26 47.302425 -122.872129 349 7735ft 97kts
08-Nov-19 09:27 47.328757 -122.869404 359 8112ft 97kts
08-Nov-19 09:28 47.355365 -122.867422 346 8431ft 95kts
08-Nov-19 09:29 47.383173 -122.865277 2 8560ft 105kts
08-Nov-19 09:30 47.411966 -122.853090 359 8586ft 106kts
08-Nov-19 09:31 47.441528 -122.847289 355 8585ft 106kts
08-Nov-19 09:32 47.470236 -122.849403 354 8581ft 106kts
08-Nov-19 09:33 47.499734 -122.846072 355 8592ft 107kts
08-Nov-19 09:34 47.529029 -122.845422 346 8605ft 104kts
08-Nov-19 09:35 47.558460 -122.844239 359 8613ft 108kts
08-Nov-19 09:36 47.588161 -122.833779 6 8626ft 110kts
08-Nov-19 09:37 47.617487 -122.819010 12 8626ft 113kts
08-Nov-19 09:38 47.646842 -122.801461 4 8580ft 111kts
08-Nov-19 09:39 47.676993 -122.792588 1 8530ft 110kts
08-Nov-19 09:40 47.707094 -122.784455 0 8497ft 109kts
08-Nov-19 09:41 47.736794 -122.778632 355 8489ft 104kts
08-Nov-19 09:42 47.765833 -122.775687 354 8475ft 103kts
08-Nov-19 09:43 47.793371 -122.778000 342 8517ft 99kts
08-Nov-19 09:44 47.822186 -122.784309 345 8525ft 111kts
08-Nov-19 09:45 47.852851 -122.790178 355 8692ft 112kts
08-Nov-19 09:46 47.884567 -122.786425 10 8841ft 113kts
08-Nov-19 09:47 47.918838 -122.776268 10 8643ft 134kts
08-Nov-19 09:48 47.955508 -122.767380 1 8499ft 129kts
08-Nov-19 09:49 47.990434 -122.764172 357 8546ft 125kts
08-Nov-19 09:50 48.025494 -122.761358 4 8544ft 128kts
08-Nov-19 09:51 48.060508 -122.754540 6 8566ft 127kts
08-Nov-19 09:52 48.093587 -122.735747 13 8558ft 128kts
08-Nov-19 09:53 48.127321 -122.740623 331 8553ft 120kts
08-Nov-19 09:54 48.159295 -122.757070 332 8550ft 121kts
08-Nov-19 09:55 48.189248 -122.779178 321 8534ft 118kts
08-Nov-19 09:56 48.217293 -122.805264 316 8514ft 117kts
08-Nov-19 09:57 48.247654 -122.826134 329 8519ft 120kts
08-Nov-19 09:58 48.276883 -122.849747 319 8515ft 118kts
08-Nov-19 09:59 48.305914 -122.873859 325 8503ft 120kts
08-Nov-19 10:00 48.337245 -122.892337 326 8510ft 120kts
08-Nov-19 10:01 48.367274 -122.917008 328 8504ft 124kts
08-Nov-19 10:02 48.396196 -122.939473 332 8788ft 95kts
08-Nov-19 10:03 48.421559 -122.949174 336 7931ft 97kts
08-Nov-19 10:04 48.446774 -122.963713 330 6885ft 98kts
08-Nov-19 10:05 48.471525 -122.981851 329 5763ft 100kts
08-Nov-19 10:06 48.493929 -123.003604 322 4623ft 90kts
08-Nov-19 10:07 48.512808 -123.026391 320 3703ft 86kts
08-Nov-19 10:08 48.531053 -123.049752 323 2916ft 85kts
08-Nov-19 10:09 48.549662 -123.072121 323 2192ft 88kts
08-Nov-19 10:10 48.569981 -123.093651 324 1541ft 91kts
08-Nov-19 10:11 48.585916 -123.120236 308 1227ft 77kts
08-Nov-19 10:12 48.593707 -123.135695 88 1210ft 80kts
08-Nov-19 10:13 48.603927 -123.117822 1 768ft 61kts
08-Nov-19 10:14 48.611511 -123.131928 269 104ft 40kts
08-Nov-19 10:15 48.611896 -123.135286 358 104ft 0kts
08-Nov-19 10:17 48.611896 -123.135286 359 104ft 0kts
08-Nov-19 10:18 48.611896 -123.135286 359 104ft 0kts
08-Nov-19 10:19 48.611896 -123.135286 359 104ft 0kts
08-Nov-19 10:20 48.611896 -123.135286 359 104ft 0kts

Navigation Log

Ident Type
Flight plan parsing failed, navigation log unavailable